Terminal Aerodrome Forecast
Issued by NWS

Home | Current Version | Previous Version | Text Only | Print | Product List | Glossary Off
Versions: 1 2 3 4 5 6 7 8 9 10 11 12 13 14 15 16 17 18 19 20 21 22 23 24 25 26 27 28 29 30 31 32 33 34 35

000
FTUS43 KLOT 281742
TAFMDW
TAF
KMDW 281742Z 2818/2918 01014KT P6SM VCSH SCT015 BKN050
     FM282100 02015G23KT P6SM VCSH SCT025 BKN050
      TEMPO 2821/2901 6SM SHRA BKN025
     FM290300 01012G18KT P6SM BKN035
     FM291400 03016G25KT P6SM BKN020=

USA.gov is the U.S. government's official web portal to all federal, state and local government web resources and services.